Time;durP1;ratioP1;P1;durP2;ratioP2;P2;SDS_P1;SDS_P2;PMS_P1;PMS_P2;Temp;Humidity;BMP_temperature;BMP_pressure;BME280_temperature;BME280_humidity;BME280_pressure;Samples;Min_cycle;Max_cycle;Signal;HPM_P1;HPM_P2
2021/12/31 00:02:14;;;;;;;9.05;2.63;;;;;;;;;;5153014;27;20376;-31
2021/12/31 00:04:40;;;;;;;7.78;3.50;;;;;;;;;;5151397;27;20479;-30
2021/12/31 00:07:06;;;;;;;9.13;2.92;;;;;;;;;;5150698;27;20177;-31
2021/12/31 00:09:32;;;;;;;8.80;2.95;;;;;;;;;;5132210;27;20420;-30
2021/12/31 00:11:58;;;;;;;6.32;2.92;;;;;;;;;;5132255;27;20046;-30
2021/12/31 00:14:25;;;;;;;8.40;2.95;;;;;;;;;;5130871;27;20047;-31
2021/12/31 00:16:51;;;;;;;10.88;3.67;;;;;;;;;;5149025;27;20102;-31
2021/12/31 00:19:17;;;;;;;9.43;3.13;;;;;;;;;;5152816;27;20511;-31
2021/12/31 00:21:46;;;;;;;9.52;3.33;;;;;;;;;;5151984;27;20491;-30
2021/12/31 00:24:13;;;;;;;11.75;3.75;;;;;;;;;;5152310;27;20103;-31
2021/12/31 00:26:39;;;;;;;11.40;3.15;;;;;;;;;;5135950;27;20039;-31
2021/12/31 00:29:05;;;;;;;13.25;4.05;;;;;;;;;;5144562;27;20559;-31
2021/12/31 00:31:31;;;;;;;10.23;3.38;;;;;;;;;;5139799;27;20043;-31
2021/12/31 00:33:57;;;;;;;11.32;3.85;;;;;;;;;;5131342;27;20043;-31
2021/12/31 00:36:23;;;;;;;8.45;3.72;;;;;;;;;;5144750;27;20444;-31
2021/12/31 00:38:49;;;;;;;8.23;3.20;;;;;;;;;;5151920;27;20039;-31
2021/12/31 00:41:15;;;;;;;8.43;3.20;;;;;;;;;;5152172;27;20407;-28
2021/12/31 00:43:41;;;;;;;12.43;4.03;;;;;;;;;;5139925;27;20035;-27
2021/12/31 00:46:07;;;;;;;7.05;3.70;;;;;;;;;;5131413;28;20046;-27
2021/12/31 00:48:33;;;;;;;10.80;3.40;;;;;;;;;;5130396;28;20039;-27
2021/12/31 00:50:58;;;;;;;8.88;3.67;;;;;;;;;;5130946;28;20046;-27
2021/12/31 00:53:24;;;;;;;8.63;4.05;;;;;;;;;;5131753;28;20510;-27
2021/12/31 00:55:50;;;;;;;8.48;3.75;;;;;;;;;;5132006;28;20036;-27
2021/12/31 00:58:16;;;;;;;9.77;3.92;;;;;;;;;;5132352;28;20054;-27
2021/12/31 01:00:42;;;;;;;10.93;3.95;;;;;;;;;;5131979;28;20253;-27
2021/12/31 01:03:08;;;;;;;9.02;3.80;;;;;;;;;;5130649;28;20543;-27
2021/12/31 01:05:34;;;;;;;8.30;3.85;;;;;;;;;;5131370;28;20042;-27
2021/12/31 01:08:00;;;;;;;10.65;3.88;;;;;;;;;;5131501;28;20035;-28
2021/12/31 01:10:28;;;;;;;7.53;3.55;;;;;;;;;;5131227;28;20069;-27
2021/12/31 01:12:54;;;;;;;8.45;4.32;;;;;;;;;;5131397;27;20093;-27
2021/12/31 01:15:36;;;;;;;10.57;4.50;;;;;;;;;;5130811;27;20373;-27
2021/12/31 01:20:32;;;;;;;10.10;3.78;;;;;;;;;;5131125;28;20058;-27
2021/12/31 01:22:58;;;;;;;8.25;3.80;;;;;;;;;;5130841;28;20483;-27
2021/12/31 01:25:24;;;;;;;7.30;3.45;;;;;;;;;;5133190;27;20042;-27
2021/12/31 01:27:50;;;;;;;7.47;4.05;;;;;;;;;;5134856;27;20152;-27
2021/12/31 01:30:16;;;;;;;8.75;3.00;;;;;;;;;;5134842;27;20201;-27
2021/12/31 01:32:43;;;;;;;8.90;3.42;;;;;;;;;;5134615;27;20035;-27
2021/12/31 01:35:09;;;;;;;11.32;3.97;;;;;;;;;;5134759;27;20039;-27
2021/12/31 01:37:35;;;;;;;6.88;3.40;;;;;;;;;;5134821;27;20035;-27
2021/12/31 01:40:01;;;;;;;6.63;3.35;;;;;;;;;;5134632;27;20046;-27
2021/12/31 01:42:31;;;;;;;7.68;3.35;;;;;;;;;;5134993;27;20088;-27
2021/12/31 01:45:02;;;;;;;7.57;4.35;;;;;;;;;;5133290;27;20043;-27
2021/12/31 01:48:22;;;;;;;11.90;4.40;;;;;;;;;;5134602;27;20272;-27
2021/12/31 01:50:15;;;;;;;6.30;3.90;;;;;;;;;;5129826;27;20051;-27
2021/12/31 01:52:41;;;;;;;7.05;4.32;;;;;;;;;;5134514;27;20070;-27
2021/12/31 01:55:10;;;;;;;6.35;3.67;;;;;;;;;;5134072;27;20054;-26
2021/12/31 01:57:37;;;;;;;6.68;3.83;;;;;;;;;;5133920;27;20065;-26
2021/12/31 02:00:03;;;;;;;5.70;3.88;;;;;;;;;;5134020;27;20070;-26
2021/12/31 02:02:29;;;;;;;10.77;4.82;;;;;;;;;;5134431;27;20526;-26
2021/12/31 02:04:55;;;;;;;6.28;4.10;;;;;;;;;;5132789;27;20047;-26
2021/12/31 02:07:22;;;;;;;9.43;5.15;;;;;;;;;;5134425;27;20365;-27
2021/12/31 02:09:52;;;;;;;7.25;4.45;;;;;;;;;;5134001;27;20172;-27
2021/12/31 02:12:18;;;;;;;7.50;5.18;;;;;;;;;;5132103;27;20043;-26
2021/12/31 02:14:45;;;;;;;9.45;5.32;;;;;;;;;;5133083;27;20042;-26
2021/12/31 02:17:11;;;;;;;9.30;5.07;;;;;;;;;;5133527;27;20495;-27
2021/12/31 02:19:38;;;;;;;12.00;5.20;;;;;;;;;;5133719;27;20506;-26
2021/12/31 02:22:04;;;;;;;8.48;6.18;;;;;;;;;;5133265;27;20400;-27
2021/12/31 02:24:31;;;;;;;8.02;5.28;;;;;;;;;;5133574;27;20035;-26
2021/12/31 02:26:58;;;;;;;9.23;4.97;;;;;;;;;;5133444;27;20425;-26
2021/12/31 02:29:25;;;;;;;9.00;5.43;;;;;;;;;;5133641;27;20042;-27
2021/12/31 02:31:52;;;;;;;11.60;5.45;;;;;;;;;;5133986;27;20050;-26
2021/12/31 02:34:18;;;;;;;8.32;5.53;;;;;;;;;;5133610;27;20122;-27
2021/12/31 02:36:45;;;;;;;7.32;5.22;;;;;;;;;;5132524;27;20483;-27
2021/12/31 02:39:11;;;;;;;8.77;6.13;;;;;;;;;;5133167;27;20031;-26
2021/12/31 02:41:37;;;;;;;5.97;5.25;;;;;;;;;;5133393;27;20042;-26
2021/12/31 02:44:03;;;;;;;5.95;4.75;;;;;;;;;;5133296;27;20442;-26
2021/12/31 02:46:29;;;;;;;10.32;5.90;;;;;;;;;;5133492;27;20039;-26
2021/12/31 02:48:57;;;;;;;8.63;5.80;;;;;;;;;;5133412;27;20043;-26
2021/12/31 02:51:27;;;;;;;9.82;5.90;;;;;;;;;;5133379;27;20043;-26
2021/12/31 02:53:54;;;;;;;9.15;5.63;;;;;;;;;;5133251;27;20071;-26
2021/12/31 02:56:20;;;;;;;8.52;5.32;;;;;;;;;;5133187;27;20098;-26
2021/12/31 02:58:46;;;;;;;6.38;5.82;;;;;;;;;;5133367;27;20035;-26
2021/12/31 03:01:12;;;;;;;8.63;6.03;;;;;;;;;;5132703;27;20095;-26
2021/12/31 03:03:40;;;;;;;9.02;7.05;;;;;;;;;;5133102;27;20562;-26
2021/12/31 03:06:07;;;;;;;7.05;6.35;;;;;;;;;;5132783;27;20073;-26
2021/12/31 03:08:37;;;;;;;7.53;6.88;;;;;;;;;;5133007;27;20047;-27
2021/12/31 03:11:04;;;;;;;11.60;8.32;;;;;;;;;;5132874;27;20039;-26
2021/12/31 03:13:30;;;;;;;10.77;6.63;;;;;;;;;;5132564;27;20569;-26
2021/12/31 03:15:58;;;;;;;8.15;7.00;;;;;;;;;;5132693;27;20031;-26
2021/12/31 03:18:24;;;;;;;8.10;5.80;;;;;;;;;;5136175;27;20050;-29
2021/12/31 03:20:57;;;;;;;8.30;6.05;;;;;;;;;;5152870;27;20113;-29
2021/12/31 03:23:27;;;;;;;11.50;6.88;;;;;;;;;;5147330;27;20092;-28
2021/12/31 03:25:53;;;;;;;7.13;6.53;;;;;;;;;;5132190;27;20445;-29
2021/12/31 03:28:20;;;;;;;7.68;6.20;;;;;;;;;;5133508;27;20070;-28
2021/12/31 03:30:47;;;;;;;8.90;5.75;;;;;;;;;;5152685;27;20046;-28
2021/12/31 03:33:13;;;;;;;7.65;5.82;;;;;;;;;;5151055;27;20351;-28
2021/12/31 03:35:39;;;;;;;9.93;6.50;;;;;;;;;;5131756;27;20081;-29
2021/12/31 03:38:05;;;;;;;6.72;6.15;;;;;;;;;;5131784;27;20070;-30
2021/12/31 03:40:31;;;;;;;9.60;5.75;;;;;;;;;;5114743;27;20171;-29
2021/12/31 03:42:57;;;;;;;10.73;6.38;;;;;;;;;;5130519;27;20067;-31
2021/12/31 03:45:23;;;;;;;7.60;6.85;;;;;;;;;;5132364;27;20094;-28
2021/12/31 03:47:49;;;;;;;9.50;6.65;;;;;;;;;;5131070;27;20193;-28
2021/12/31 03:50:15;;;;;;;6.43;5.78;;;;;;;;;;5147502;27;20042;-33
2021/12/31 03:52:41;;;;;;;8.23;6.25;;;;;;;;;;5151515;27;20632;-28
2021/12/31 03:55:08;;;;;;;6.68;5.95;;;;;;;;;;5135951;27;20130;-28
2021/12/31 03:57:35;;;;;;;6.78;5.32;;;;;;;;;;5129776;27;20134;-28
2021/12/31 04:00:01;;;;;;;7.70;5.80;;;;;;;;;;5132446;27;20035;-28
2021/12/31 04:02:27;;;;;;;7.25;6.47;;;;;;;;;;5130772;27;20091;-27
2021/12/31 04:04:53;;;;;;;8.43;6.07;;;;;;;;;;5142537;27;20043;-27
2021/12/31 04:07:21;;;;;;;7.18;6.45;;;;;;;;;;5137446;27;20069;-27
2021/12/31 04:09:47;;;;;;;9.95;8.07;;;;;;;;;;5140493;27;20042;-28
2021/12/31 04:12:13;;;;;;;10.95;8.45;;;;;;;;;;5151583;27;20491;-28
2021/12/31 04:14:39;;;;;;;10.85;8.43;;;;;;;;;;5140509;27;20061;-28
2021/12/31 04:17:05;;;;;;;11.90;8.00;;;;;;;;;;5150074;27;20039;-27
2021/12/31 04:19:31;;;;;;;11.75;8.88;;;;;;;;;;5145097;27;20556;-27
2021/12/31 04:21:57;;;;;;;8.15;6.40;;;;;;;;;;5131278;27;20046;-28
2021/12/31 04:24:57;;;;;;;9.10;7.60;;;;;;;;;;5131054;27;20035;-28
2021/12/31 04:27:16;;;;;;;11.15;8.00;;;;;;;;;;5128167;27;20051;-28
2021/12/31 04:29:50;;;;;;;9.38;7.05;;;;;;;;;;5138168;27;20075;-28
2021/12/31 04:32:16;;;;;;;9.32;8.38;;;;;;;;;;5152913;27;20091;-28
2021/12/31 04:34:42;;;;;;;11.35;9.57;;;;;;;;;;5144695;27;20050;-28
2021/12/31 04:37:08;;;;;;;8.52;7.25;;;;;;;;;;5130990;27;20039;-28
2021/12/31 04:39:34;;;;;;;10.73;7.50;;;;;;;;;;5136152;27;20038;-29
2021/12/31 04:42:00;;;;;;;10.55;9.45;;;;;;;;;;5144603;27;20395;-27
2021/12/31 04:44:26;;;;;;;9.90;7.10;;;;;;;;;;5131850;27;20047;-29
2021/12/31 04:46:52;;;;;;;9.88;7.50;;;;;;;;;;5151398;27;20406;-30
2021/12/31 04:49:18;;;;;;;13.40;8.05;;;;;;;;;;5150919;27;20038;-29
2021/12/31 04:51:44;;;;;;;10.02;6.18;;;;;;;;;;5145964;27;20129;-30
2021/12/31 04:54:15;;;;;;;15.07;7.63;;;;;;;;;;5130413;27;20039;-31
2021/12/31 04:56:42;;;;;;;14.23;8.75;;;;;;;;;;5150757;27;20038;-30
2021/12/31 04:59:09;;;;;;;8.07;5.47;;;;;;;;;;5152388;27;20062;-30
2021/12/31 05:01:35;;;;;;;6.93;5.13;;;;;;;;;;5153787;27;20167;-30
2021/12/31 05:04:01;;;;;;;11.75;9.23;;;;;;;;;;5140578;27;20503;-30
2021/12/31 05:06:27;;;;;;;8.40;6.13;;;;;;;;;;5151817;27;20372;-31
2021/12/31 05:08:54;;;;;;;7.18;5.68;;;;;;;;;;5151524;27;20502;-29
2021/12/31 05:11:20;;;;;;;12.73;8.07;;;;;;;;;;5148082;27;20394;-28
2021/12/31 05:13:46;;;;;;;8.00;5.43;;;;;;;;;;5150227;27;20042;-27
2021/12/31 05:16:13;;;;;;;5.88;4.43;;;;;;;;;;5135583;27;20039;-26
2021/12/31 05:18:39;;;;;;;10.77;7.70;;;;;;;;;;5135177;27;20039;-27
2021/12/31 05:21:05;;;;;;;6.90;3.67;;;;;;;;;;5135165;27;20031;-27
2021/12/31 05:23:31;;;;;;;5.90;3.28;;;;;;;;;;5136576;27;20578;-29
2021/12/31 05:25:57;;;;;;;7.20;4.55;;;;;;;;;;5146043;27;20114;-27
2021/12/31 05:28:23;;;;;;;5.22;3.70;;;;;;;;;;5150347;27;20039;-30
2021/12/31 05:30:49;;;;;;;5.93;3.20;;;;;;;;;;5141156;27;20329;-30
2021/12/31 05:33:15;;;;;;;5.05;3.75;;;;;;;;;;5154431;27;20074;-30
2021/12/31 05:35:41;;;;;;;9.13;5.63;;;;;;;;;;5148768;27;20035;-31
2021/12/31 05:38:07;;;;;;;5.13;3.80;;;;;;;;;;5131347;27;20483;-32
2021/12/31 05:40:34;;;;;;;5.32;3.88;;;;;;;;;;5138271;27;20035;-31
2021/12/31 05:43:00;;;;;;;7.30;4.60;;;;;;;;;;5153994;27;20038;-32
2021/12/31 05:45:26;;;;;;;8.77;5.05;;;;;;;;;;5152353;27;20040;-32
2021/12/31 05:47:53;;;;;;;6.22;4.22;;;;;;;;;;5133845;27;20035;-29
2021/12/31 05:50:28;;;;;;;4.18;3.17;;;;;;;;;;5134267;27;20492;-30
2021/12/31 05:52:58;;;;;;;3.45;2.38;;;;;;;;;;5153981;27;20383;-31
2021/12/31 05:55:24;;;;;;;6.35;3.28;;;;;;;;;;5154215;27;20035;-26
2021/12/31 05:57:50;;;;;;;5.07;3.67;;;;;;;;;;5155238;27;20079;-26
2021/12/31 06:00:17;;;;;;;7.47;4.20;;;;;;;;;;5155115;27;20372;-26
2021/12/31 06:02:46;;;;;;;6.53;4.10;;;;;;;;;;5154802;27;20246;-26
2021/12/31 06:05:12;;;;;;;4.88;4.25;;;;;;;;;;5154121;27;20054;-26
2021/12/31 06:07:38;;;;;;;7.80;5.70;;;;;;;;;;5154793;27;20043;-26
2021/12/31 06:10:04;;;;;;;5.43;3.08;;;;;;;;;;5155067;27;20360;-26
2021/12/31 06:12:30;;;;;;;6.05;5.15;;;;;;;;;;5155079;27;20117;-27
2021/12/31 06:14:59;;;;;;;10.05;6.20;;;;;;;;;;5154622;27;20046;-27
2021/12/31 06:17:27;;;;;;;6.85;4.15;;;;;;;;;;5154192;27;20075;-27
2021/12/31 06:19:53;;;;;;;6.53;4.35;;;;;;;;;;5154719;27;20038;-25
2021/12/31 06:22:23;;;;;;;4.57;3.58;;;;;;;;;;5154190;27;20099;-26
2021/12/31 06:24:49;;;;;;;8.63;5.75;;;;;;;;;;5154444;27;20043;-26
2021/12/31 06:27:18;;;;;;;8.23;5.82;;;;;;;;;;5154154;27;20038;-27
2021/12/31 06:29:45;;;;;;;7.80;5.30;;;;;;;;;;5154693;27;20372;-27
2021/12/31 06:32:11;;;;;;;5.68;3.75;;;;;;;;;;5153439;27;20562;-27
2021/12/31 06:34:37;;;;;;;8.77;5.82;;;;;;;;;;5154488;27;20043;-26
2021/12/31 06:37:03;;;;;;;8.75;4.50;;;;;;;;;;5154523;27;20505;-27
2021/12/31 06:39:29;;;;;;;5.10;3.13;;;;;;;;;;5153189;27;20436;-26
2021/12/31 06:41:55;;;;;;;7.03;4.38;;;;;;;;;;5154783;27;20042;-27
2021/12/31 06:44:21;;;;;;;10.30;5.95;;;;;;;;;;5154799;27;20050;-27
2021/12/31 06:46:53;;;;;;;5.60;3.85;;;;;;;;;;5154184;27;20045;-27
2021/12/31 06:49:19;;;;;;;5.97;4.15;;;;;;;;;;5153589;27;20526;-27
2021/12/31 06:51:45;;;;;;;14.80;9.60;;;;;;;;;;5154172;27;20038;-27
2021/12/31 06:54:14;;;;;;;9.38;7.35;;;;;;;;;;5153879;27;20391;-27
2021/12/31 06:56:40;;;;;;;9.68;6.00;;;;;;;;;;5153626;27;20046;-27
2021/12/31 06:59:06;;;;;;;16.83;9.57;;;;;;;;;;5152443;27;20287;-27
2021/12/31 07:01:32;;;;;;;6.07;4.60;;;;;;;;;;5147697;27;20039;-31
2021/12/31 07:03:58;;;;;;;5.90;4.43;;;;;;;;;;5130844;27;20046;-29
2021/12/31 07:06:24;;;;;;;4.65;4.15;;;;;;;;;;5134400;27;20039;-27
2021/12/31 07:08:50;;;;;;;7.00;5.10;;;;;;;;;;5132598;27;20035;-27
2021/12/31 07:11:17;;;;;;;6.28;4.43;;;;;;;;;;5132771;27;20042;-27
2021/12/31 07:13:43;;;;;;;6.28;4.45;;;;;;;;;;5131549;27;20050;-27
2021/12/31 07:16:09;;;;;;;6.35;3.83;;;;;;;;;;5133219;27;20039;-27
2021/12/31 07:18:35;;;;;;;7.25;3.90;;;;;;;;;;5132154;27;20397;-27
2021/12/31 07:21:01;;;;;;;6.53;3.72;;;;;;;;;;5132620;27;20058;-27
2021/12/31 07:23:27;;;;;;;4.20;3.50;;;;;;;;;;5131661;27;20039;-27
2021/12/31 07:25:53;;;;;;;6.07;3.83;;;;;;;;;;5131530;27;20503;-27
2021/12/31 07:28:19;;;;;;;5.53;3.75;;;;;;;;;;5132798;27;20533;-26
2021/12/31 07:30:45;;;;;;;6.07;3.63;;;;;;;;;;5132748;27;20039;-26
2021/12/31 07:33:16;;;;;;;9.18;3.90;;;;;;;;;;5132442;27;20046;-26
2021/12/31 07:35:42;;;;;;;5.30;3.60;;;;;;;;;;5131107;27;20035;-27
2021/12/31 07:38:11;;;;;;;7.72;3.72;;;;;;;;;;5132105;27;20042;-26
2021/12/31 07:40:39;;;;;;;8.48;4.10;;;;;;;;;;5132214;27;20119;-26
2021/12/31 07:43:09;;;;;;;6.15;4.03;;;;;;;;;;5132165;27;20042;-26
2021/12/31 07:45:35;;;;;;;6.40;4.00;;;;;;;;;;5132222;27;20031;-26
2021/12/31 07:48:01;;;;;;;7.30;4.30;;;;;;;;;;5132412;27;20035;-26
2021/12/31 07:50:28;;;;;;;5.63;3.85;;;;;;;;;;5131696;27;20039;-26
2021/12/31 07:52:54;;;;;;;5.30;4.32;;;;;;;;;;5132234;27;20118;-26
2021/12/31 07:55:20;;;;;;;7.60;4.38;;;;;;;;;;5132246;27;20138;-26
2021/12/31 07:57:45;;;;;;;7.07;4.30;;;;;;;;;;5132531;27;20035;-26
2021/12/31 08:00:12;;;;;;;5.88;4.00;;;;;;;;;;5132221;27;20035;-26
2021/12/31 08:02:38;;;;;;;7.07;4.05;;;;;;;;;;5131661;27;20088;-26
2021/12/31 08:05:04;;;;;;;6.00;4.30;;;;;;;;;;5130694;27;20035;-26
2021/12/31 08:07:30;;;;;;;6.78;3.83;;;;;;;;;;5131817;27;20078;-27
2021/12/31 08:09:56;;;;;;;6.43;4.60;;;;;;;;;;5131689;27;20047;-27
2021/12/31 08:12:22;;;;;;;5.95;4.55;;;;;;;;;;5131822;27;20174;-27
2021/12/31 08:14:48;;;;;;;8.52;4.80;;;;;;;;;;5130858;27;20050;-27
2021/12/31 08:17:14;;;;;;;5.47;3.95;;;;;;;;;;5131376;27;20056;-27
2021/12/31 08:19:41;;;;;;;4.57;3.88;;;;;;;;;;5131625;27;20088;-27
2021/12/31 08:22:07;;;;;;;3.97;3.58;;;;;;;;;;5131412;27;20043;-26
2021/12/31 08:24:40;;;;;;;17.88;10.70;;;;;;;;;;5131850;27;20035;-27
2021/12/31 08:27:06;;;;;;;20.50;11.55;;;;;;;;;;5131715;27;20468;-27
2021/12/31 08:29:32;;;;;;;39.05;21.58;;;;;;;;;;5131962;27;20122;-27
2021/12/31 08:31:57;;;;;;;17.60;11.23;;;;;;;;;;5131633;27;20122;-27
2021/12/31 08:34:24;;;;;;;11.13;6.65;;;;;;;;;;5130918;27;20101;-26
2021/12/31 08:36:56;;;;;;;13.27;9.25;;;;;;;;;;5131745;27;20062;-27
2021/12/31 08:39:22;;;;;;;14.55;8.88;;;;;;;;;;5131495;27;20122;-26
2021/12/31 08:41:48;;;;;;;11.63;8.00;;;;;;;;;;5131114;27;20046;-26
2021/12/31 08:44:14;;;;;;;9.43;7.82;;;;;;;;;;5131363;28;20039;-26
2021/12/31 08:46:41;;;;;;;5.70;4.18;;;;;;;;;;5131739;28;20104;-26
2021/12/31 08:49:07;;;;;;;5.82;4.82;;;;;;;;;;5131600;27;20039;-26
2021/12/31 08:51:33;;;;;;;8.57;5.00;;;;;;;;;;5131503;27;20083;-27
2021/12/31 08:53:59;;;;;;;7.60;5.20;;;;;;;;;;5144227;27;20034;-30
2021/12/31 08:56:26;;;;;;;5.50;4.40;;;;;;;;;;5137820;27;20155;-29
2021/12/31 08:58:52;;;;;;;7.43;4.30;;;;;;;;;;5140677;27;20085;-27
2021/12/31 09:01:18;;;;;;;6.15;4.55;;;;;;;;;;5143418;27;20674;-28
2021/12/31 09:03:44;;;;;;;5.93;4.53;;;;;;;;;;5138700;27;20427;-27
2021/12/31 09:06:11;;;;;;;6.13;4.07;;;;;;;;;;5144102;27;20350;-28
2021/12/31 09:08:37;;;;;;;8.05;4.80;;;;;;;;;;5139185;27;20126;-28
2021/12/31 09:11:04;;;;;;;8.75;5.63;;;;;;;;;;5147426;27;20050;-27
2021/12/31 09:13:32;;;;;;;7.65;5.30;;;;;;;;;;5150683;27;20045;-27
2021/12/31 09:15:58;;;;;;;6.38;5.78;;;;;;;;;;5151091;27;20895;-27
2021/12/31 09:18:24;;;;;;;7.97;5.35;;;;;;;;;;5149919;27;20042;-27
2021/12/31 09:20:52;;;;;;;7.88;5.68;;;;;;;;;;5147689;27;20034;-28
2021/12/31 09:23:18;;;;;;;6.72;5.60;;;;;;;;;;5151079;27;20070;-27
2021/12/31 09:25:44;;;;;;;6.47;5.80;;;;;;;;;;5141560;27;20181;-27
2021/12/31 09:28:11;;;;;;;6.82;6.13;;;;;;;;;;5130282;27;20045;-28
2021/12/31 09:30:40;;;;;;;8.77;6.25;;;;;;;;;;5137191;27;20027;-28
2021/12/31 09:33:06;;;;;;;7.22;5.35;;;;;;;;;;5143469;27;20035;-27
2021/12/31 09:35:32;;;;;;;8.60;5.30;;;;;;;;;;5152437;27;20045;-27
2021/12/31 09:37:58;;;;;;;14.95;5.68;;;;;;;;;;5146297;27;20121;-27
2021/12/31 09:40:24;;;;;;;6.78;6.00;;;;;;;;;;5141584;27;20067;-27
2021/12/31 09:43:07;;;;;;;6.15;4.57;;;;;;;;;;5150757;27;20355;-28
2021/12/31 09:45:34;;;;;;;9.88;8.07;;;;;;;;;;5133325;27;20051;-27
2021/12/31 09:48:00;;;;;;;10.15;7.05;;;;;;;;;;5143435;27;20046;-28
2021/12/31 09:50:26;;;;;;;16.75;12.93;;;;;;;;;;5149216;27;20099;-27
2021/12/31 09:52:54;;;;;;;7.85;7.05;;;;;;;;;;5149884;27;20070;-27
2021/12/31 09:55:35;;;;;;;8.32;5.35;;;;;;;;;;5147039;27;20047;-28
2021/12/31 09:58:01;;;;;;;6.53;4.38;;;;;;;;;;5138856;27;20088;-27
2021/12/31 10:00:27;;;;;;;6.20;4.60;;;;;;;;;;5138546;27;20043;-28
2021/12/31 10:03:12;;;;;;;7.28;4.43;;;;;;;;;;5132448;27;20039;-28
2021/12/31 10:05:41;;;;;;;6.25;4.60;;;;;;;;;;5138423;27;20406;-28
2021/12/31 10:08:14;;;;;;;7.18;4.50;;;;;;;;;;5135384;27;20323;-28
2021/12/31 10:10:40;;;;;;;6.35;4.95;;;;;;;;;;5145584;27;20066;-28
2021/12/31 10:13:07;;;;;;;6.65;4.25;;;;;;;;;;5152564;27;20528;-28
2021/12/31 10:15:38;;;;;;;6.03;4.47;;;;;;;;;;5152371;27;20106;-28
2021/12/31 10:18:12;;;;;;;5.80;5.03;;;;;;;;;;5151320;27;20043;-27
2021/12/31 10:20:38;;;;;;;;;;;;;;;;;;5142731;27;20031;-28
2021/12/31 10:23:15;;;;;;;6.88;5.32;;;;;;;;;;5148633;27;19959;-28
2021/12/31 10:25:41;;;;;;;5.35;4.30;;;;;;;;;;5152000;27;20027;-28
2021/12/31 10:28:11;;;;;;;6.00;4.95;;;;;;;;;;5145957;27;20035;-28
2021/12/31 10:30:37;;;;;;;4.80;4.30;;;;;;;;;;5146933;27;20447;-28
2021/12/31 10:33:04;;;;;;;6.97;4.93;;;;;;;;;;5153303;27;20391;-28
2021/12/31 10:35:40;;;;;;;8.73;4.90;;;;;;;;;;5153815;27;20034;-28
2021/12/31 10:38:06;;;;;;;6.13;4.97;;;;;;;;;;5133253;27;20066;-27
2021/12/31 10:40:32;;;;;;;6.30;4.70;;;;;;;;;;5133832;27;20154;-27
2021/12/31 10:43:12;;;;;;;8.07;4.63;;;;;;;;;;5134723;27;20039;-27
2021/12/31 10:45:39;;;;;;;8.43;5.05;;;;;;;;;;5133247;27;20031;-28
2021/12/31 10:48:09;;;;;;;5.68;4.63;;;;;;;;;;5150467;27;20034;-28
2021/12/31 10:50:37;;;;;;;8.25;5.65;;;;;;;;;;5143011;27;20395;-29
2021/12/31 10:53:10;;;;;;;10.45;4.88;;;;;;;;;;5134095;27;20422;-27
2021/12/31 10:55:40;;;;;;;8.10;5.00;;;;;;;;;;5132223;27;20039;-29
2021/12/31 10:58:07;;;;;;;6.35;5.43;;;;;;;;;;5131812;27;20039;-29
2021/12/31 11:00:34;;;;;;;8.60;5.15;;;;;;;;;;5132829;27;20063;-29
2021/12/31 11:03:01;;;;;;;5.78;5.18;;;;;;;;;;5147303;27;20047;-29
2021/12/31 11:05:27;;;;;;;9.73;5.57;;;;;;;;;;5152742;27;20054;-29
2021/12/31 11:07:54;;;;;;;6.90;5.07;;;;;;;;;;5146280;27;20156;-29
2021/12/31 11:10:27;;;;;;;5.70;4.25;;;;;;;;;;5152635;27;20072;-29
2021/12/31 11:12:53;;;;;;;9.87;5.90;;;;;;;;;;5138400;27;20081;-29
2021/12/31 11:15:19;;;;;;;6.00;5.40;;;;;;;;;;5132196;27;20483;-30
2021/12/31 11:17:45;;;;;;;8.85;5.32;;;;;;;;;;5143917;27;20041;-29
2021/12/31 11:20:13;;;;;;;9.77;6.47;;;;;;;;;;5153441;27;20062;-29
2021/12/31 11:22:44;;;;;;;7.40;5.57;;;;;;;;;;5136479;27;20035;-29
2021/12/31 11:25:19;;;;;;;7.43;5.60;;;;;;;;;;5151412;27;20088;-29
2021/12/31 11:27:47;;;;;;;7.00;5.20;;;;;;;;;;5131980;27;20392;-29
2021/12/31 11:30:32;;;;;;;8.05;5.88;;;;;;;;;;5132130;27;20042;-29
2021/12/31 11:33:07;;;;;;;8.63;5.68;;;;;;;;;;5143480;27;20038;-29
2021/12/31 11:35:36;;;;;;;9.45;6.60;;;;;;;;;;5152363;27;20069;-30
2021/12/31 11:38:06;;;;;;;8.18;6.43;;;;;;;;;;5150000;27;20467;-30
2021/12/31 11:40:32;;;;;;;8.45;6.38;;;;;;;;;;5146831;27;20031;-28
2021/12/31 11:43:20;;;;;;;8.95;6.97;;;;;;;;;;5142519;27;20436;-29
2021/12/31 11:46:05;;;;;;;9.25;6.25;;;;;;;;;;5152640;27;20074;-29
2021/12/31 11:48:47;;;;;;;11.25;6.35;;;;;;;;;;5150438;27;20450;-29
2021/12/31 11:51:16;;;;;;;10.48;6.07;;;;;;;;;;5143601;27;20037;-29
2021/12/31 11:53:57;;;;;;;11.15;6.57;;;;;;;;;;5135688;27;20051;-29
2021/12/31 11:56:43;;;;;;;11.65;6.20;;;;;;;;;;5141762;27;20046;-29
2021/12/31 11:59:12;;;;;;;7.80;5.97;;;;;;;;;;5130457;27;20046;-29
2021/12/31 12:01:38;;;;;;;13.07;10.05;;;;;;;;;;5131123;27;20042;-29
2021/12/31 12:04:20;;;;;;;18.52;12.18;;;;;;;;;;5130662;27;20069;-29
2021/12/31 12:10:33;;;;;;;23.92;15.23;;;;;;;;;;5131638;27;20043;-29
2021/12/31 12:16:41;;;;;;;21.08;14.82;;;;;;;;;;5137210;27;20049;-29
2021/12/31 12:29:09;;;;;;;10.68;8.60;;;;;;;;;;5133113;27;20419;-29
2021/12/31 12:38:23;;;;;;;14.20;8.32;;;;;;;;;;5150440;27;20043;-30
2021/12/31 12:40:49;;;;;;;11.45;8.85;;;;;;;;;;5133055;27;20035;-29
2021/12/31 12:43:18;;;;;;;13.60;10.88;;;;;;;;;;5151795;27;20114;-29
2021/12/31 12:45:54;;;;;;;18.27;13.30;;;;;;;;;;5170516;27;20038;-29
2021/12/31 12:48:30;;;;;;;17.92;13.15;;;;;;;;;;5146856;27;20027;-29
2021/12/31 12:51:00;;;;;;;18.05;13.00;;;;;;;;;;5152136;27;20384;-29
2021/12/31 12:53:27;;;;;;;14.65;12.05;;;;;;;;;;5143404;27;20043;-29
2021/12/31 12:56:04;;;;;;;17.00;11.35;;;;;;;;;;5152472;27;20058;-29
2021/12/31 12:58:30;;;;;;;13.80;10.63;;;;;;;;;;5147932;27;20054;-29
2021/12/31 13:00:57;;;;;;;11.57;8.88;;;;;;;;;;5132899;28;20118;-29
2021/12/31 13:03:24;;;;;;;11.82;9.40;;;;;;;;;;5134920;27;20067;-29
2021/12/31 13:06:00;;;;;;;13.70;10.63;;;;;;;;;;5154269;27;20035;-30
2021/12/31 13:08:26;;;;;;;17.23;13.18;;;;;;;;;;5145284;27;20384;-30
2021/12/31 13:10:52;;;;;;;35.90;20.40;;;;;;;;;;5154337;27;20092;-27
2021/12/31 13:13:19;;;;;;;35.90;19.65;;;;;;;;;;5154179;27;20034;-27
2021/12/31 13:15:46;;;;;;;94.50;46.60;;;;;;;;;;5153298;27;20050;-27
2021/12/31 13:18:23;;;;;;;17.15;13.80;;;;;;;;;;5153436;27;20038;-27
2021/12/31 13:20:49;;;;;;;73.47;37.60;;;;;;;;;;5153218;27;20111;-27
2021/12/31 13:23:22;;;;;;;24.75;15.27;;;;;;;;;;5157009;27;20147;-27
2021/12/31 13:25:51;;;;;;;14.93;11.43;;;;;;;;;;5143632;27;20500;-27
2021/12/31 13:28:21;;;;;;;38.20;22.27;;;;;;;;;;5146800;27;20114;-30
2021/12/31 13:31:09;;;;;;;16.95;12.27;;;;;;;;;;5139237;27;20118;-28
2021/12/31 13:33:46;;;;;;;16.33;11.15;;;;;;;;;;5142392;27;20053;-28
2021/12/31 13:36:20;;;;;;;15.02;10.70;;;;;;;;;;5164881;27;20040;-28
2021/12/31 13:38:56;;;;;;;17.58;11.48;;;;;;;;;;5136786;27;20039;-28
2021/12/31 13:41:22;;;;;;;13.00;10.52;;;;;;;;;;5139320;27;20035;-28
2021/12/31 13:43:52;;;;;;;15.70;10.52;;;;;;;;;;5141637;27;20061;-28
2021/12/31 13:46:19;;;;;;;16.77;12.13;;;;;;;;;;5147060;22;20701;-27
2021/12/31 13:48:49;;;;;;;13.77;11.70;;;;;;;;;;5134350;28;20407;-26
2021/12/31 13:51:27;;;;;;;15.98;10.95;;;;;;;;;;5134566;28;20054;-27
2021/12/31 13:53:56;;;;;;;15.43;12.07;;;;;;;;;;5134476;28;20074;-26
2021/12/31 13:56:33;;;;;;;14.20;8.98;;;;;;;;;;5134658;28;20060;-27
2021/12/31 13:58:59;;;;;;;12.82;10.38;;;;;;;;;;5134435;28;20443;-26
2021/12/31 14:01:25;;;;;;;14.57;9.57;;;;;;;;;;5112875;28;20122;-27
2021/12/31 14:04:09;;;;;;;16.70;10.93;;;;;;;;;;5130620;28;20118;-26
2021/12/31 14:06:35;;;;;;;15.55;11.55;;;;;;;;;;5129296;28;20039;-25
2021/12/31 14:09:03;;;;;;;17.83;9.85;;;;;;;;;;5128944;28;20083;-25
2021/12/31 14:11:29;;;;;;;12.82;9.25;;;;;;;;;;5114491;28;20043;-26
2021/12/31 14:13:55;;;;;;;15.23;11.60;;;;;;;;;;5134262;28;20039;-26
2021/12/31 14:16:21;;;;;;;20.48;12.35;;;;;;;;;;5134897;28;20050;-26
2021/12/31 14:18:47;;;;;;;19.58;14.02;;;;;;;;;;5129182;28;20035;-29
2021/12/31 14:21:16;;;;;;;20.15;15.85;;;;;;;;;;5129103;28;20395;-27
2021/12/31 14:23:45;;;;;;;18.92;15.77;;;;;;;;;;5111895;28;20039;-27
2021/12/31 14:26:14;;;;;;;23.67;17.25;;;;;;;;;;5112010;28;20161;-27
2021/12/31 14:28:40;;;;;;;25.33;18.63;;;;;;;;;;5116646;28;20452;-31
2021/12/31 14:31:08;;;;;;;27.13;17.08;;;;;;;;;;5129775;28;20039;-30
2021/12/31 14:33:34;;;;;;;23.63;17.40;;;;;;;;;;5130070;28;20035;-31
2021/12/31 14:36:00;;;;;;;23.48;15.32;;;;;;;;;;5130952;28;20054;-32
2021/12/31 14:38:30;;;;;;;18.67;13.68;;;;;;;;;;5126685;28;21636;-30
2021/12/31 14:41:02;;;;;;;18.98;12.93;;;;;;;;;;5124277;28;20058;-31
2021/12/31 14:43:28;;;;;;;23.27;15.70;;;;;;;;;;5120277;28;20046;-31
2021/12/31 14:45:54;;;;;;;17.75;13.25;;;;;;;;;;5123629;28;20427;-32
2021/12/31 14:48:20;;;;;;;15.88;12.77;;;;;;;;;;5092190;27;1051513;-31
2021/12/31 14:50:54;;;;;;;21.08;13.63;;;;;;;;;;5126373;27;20042;-31
2021/12/31 14:53:29;;;;;;;20.00;13.75;;;;;;;;;;5124409;27;20046;-31
2021/12/31 14:55:58;;;;;;;19.13;12.80;;;;;;;;;;5125176;27;20070;-31
2021/12/31 14:58:27;;;;;;;20.80;12.63;;;;;;;;;;5110420;27;20269;-29
2021/12/31 15:01:03;;;;;;;13.90;11.52;;;;;;;;;;5122107;27;20031;-27
2021/12/31 15:03:42;;;;;;;17.75;14.10;;;;;;;;;;5131050;27;20625;-27
2021/12/31 15:06:09;;;;;;;18.48;13.93;;;;;;;;;;5130550;27;20042;-26
2021/12/31 15:08:37;;;;;;;17.90;15.15;;;;;;;;;;5110264;27;20091;-28